Atlantic - Newfoundland: Past 24 Hour Conditions

 

Îles de la Madeleine Airport

06:00 AM ADT 01 August 2014
This table is a summary of hourly weather conditions for the past 24 hours.
Date / Time
(ADT)
Wind(knots) Conditions Visibility(km) Pressure(kPa) Air tempC) Relative humidity(%) Dew pointC) Humidex
01 August 2014
6:00 SW 8 Mainly Sunny 32 102.2 19 84 16 *
5:00 SSW 8 N/A N/A 102.2 19 85 16 *
4:00 SSW 7 Clear 24 102.2 19 85 17 *
3:00 SSW 8 Clear 24 102.2 19 88 17 *
2:00 SSW 8 Clear 24 102.2 19 85 17 *
1:00 SSW 9 Clear 24 102.2 19 86 17 *
0:00 SSW 10 N/A N/A 102.1 19 85 17 *
31 July 2014
23:00 SSW 10 gust 16 Clear 24 102.2 20 80 17 25
22:00 SSW 8 Clear 24 102.2 20 82 17 *
21:00 SSW 9 Mainly Clear 32 102.1 20 84 17 *
20:00 SSW 10 gust 16 Partly Cloudy 32 102.1 21 73 16 26
19:00 SW 11 gust 18 Partly Cloudy 32 102.1 22 68 16 27
18:00 SW 16 gust 22 Mostly Cloudy 32 102.0 23 73 18 28
17:00 SW 10 gust 18 Mostly Cloudy 24 102.0 22 80 19 29
16:00 SSW 11 gust 18 Mostly Cloudy 19 102.0 22 88 20 30
15:00 SSW 15 gust 20 Mostly Cloudy 19 102.0 23 84 20 31
14:00 SSW 12 gust 19 Mostly Cloudy 19 101.9 23 85 20 30
13:00 SSW 11 gust 21 Mostly Cloudy 16 101.9 23 87 21 31
12:00 S 14 gust 21 Mostly Cloudy 16 101.9 22 89 20 29
11:00 S 14 gust 23 Mostly Cloudy 16 101.9 22 90 20 30
10:00 S 13 gust 20 Mostly Cloudy 32 101.9 22 92 20 29
9:00 SSE 12 Mostly Cloudy 24 101.9 21 92 20 29
8:00 SSE 10 Mostly Cloudy 24 101.9 21 94 20 28
7:00 S 11 gust 16 Light Rainshower 32 101.9 21 94 20 28
6:00 S 8 gust 16 Mostly Cloudy 32 101.9 20 95 20 28
 
Map of Atlantic - Newfoundland marine weather areas Southwestern Grand Banks - 44138 Banquereau - 44139 Tail of the Bank - 44140 Nickerson Bank - 44251 Northeast Burgeo Bank - 44255 Blanc-Sablon Airport Cap Whittle Chevery Natashquan Airport Heath Point Miscou Island Grand Étang Ingonish Beach North Mountain St.Paul Island J.A. Douglas McCurdy Sydney Airport Charlottetown Airport East Point North Cape Argentia Bonavista Burgeo Cape Race Corner Brook Daniel's Harbour Englee Ferolle Point La Scie Port aux Basques Rocky Harbour Sagona Island St. Anthony Airport St. John's Int'l Airport St. Lawrence Stephenville Airport Twillingate Winterland Wreckhouse Cartwright Airport Mary's Harbour Grates Cove Pool's Island Marticot Island Long Pond Îles de la Madeleine Airport
Legend: buoyBuoy land stationLand Station